Time;durP1;ratioP1;P1;durP2;ratioP2;P2;SDS_P1;SDS_P2;PMS_P1;PMS_P2;Temp;Humidity;BMP_temperature;BMP_pressure;BME280_temperature;BME280_humidity;BME280_pressure;Samples;Min_cycle;Max_cycle;Signal;HPM_P1;HPM_P2
2022/09/09 00:02:19;;;;;;;3.27;2.42;;;;;;;10.23;60.08;100919.16;1672199;84;21008;-70
2022/09/09 00:04:51;;;;;;;4.53;3.30;;;;;;;10.18;60.26;100920.98;1671962;84;21039;-70
2022/09/09 00:07:26;;;;;;;2.83;2.50;;;;;;;10.13;60.56;100919.33;1666252;85;21021;-70
2022/09/09 00:10:21;;;;;;;3.90;2.27;;;;;;;10.08;60.63;100921.70;1670933;85;21095;-69
2022/09/09 00:13:09;;;;;;;3.97;2.97;;;;;;;10.04;60.82;100913.69;1671498;85;21065;-70
2022/09/09 00:15:44;;;;;;;2.65;2.37;;;;;;;9.99;61.15;100912.88;1671720;86;21036;-71
2022/09/09 00:18:32;;;;;;;6.40;2.30;;;;;;;9.96;61.24;100915.05;1671703;84;21036;-69
2022/09/09 00:21:09;;;;;;;5.60;2.50;;;;;;;9.94;61.45;100920.55;1670118;84;21576;-72
2022/09/09 00:23:56;;;;;;;2.90;2.60;;;;;;;9.91;61.56;100920.91;1672254;85;21095;-69
2022/09/09 00:26:40;;;;;;;2.23;2.03;;;;;;;9.88;61.83;100922.05;1672021;84;21048;-72
2022/09/09 00:29:15;;;;;;;2.83;2.47;;;;;;;9.86;62.07;100920.58;1677103;84;21017;-70
2022/09/09 00:31:42;;;;;;;2.77;2.37;;;;;;;9.82;62.05;100926.73;1683713;85;21037;-69
2022/09/09 00:34:22;;;;;;;;;;;;;;;9.82;62.16;100928.06;1616712;85;21800;-70
2022/09/09 00:36:52;;;;;;;6.03;2.70;;;;;;;9.81;62.27;100935.70;1628883;87;20181;-69
2022/09/09 00:39:41;;;;;;;3.20;1.80;;;;;;;9.73;62.41;100929.89;1644251;87;21067;-69
2022/09/09 00:42:19;;;;;;;4.67;2.33;;;;;;;9.71;62.48;100927.08;1644217;87;21019;-70
2022/09/09 00:45:05;;;;;;;3.43;2.53;;;;;;;9.71;62.54;100944.38;1634011;87;21075;-70
2022/09/09 00:47:53;;;;;;;3.33;2.37;;;;;;;9.70;62.60;100938.72;1610103;89;21143;-81
2022/09/09 00:50:45;;;;;;;2.87;1.93;;;;;;;9.67;62.75;100942.55;1609637;88;21115;-69
2022/09/09 00:53:27;;;;;;;4.03;2.47;;;;;;;9.66;62.82;100938.72;1617076;88;21469;-73
2022/09/09 00:56:08;;;;;;;4.03;2.17;;;;;;;9.65;62.83;100944.55;1625029;88;21100;-80
2022/09/09 00:58:35;;;;;;;4.23;2.37;;;;;;;9.66;62.83;100948.04;1625354;88;21121;-71
2022/09/09 01:01:11;;;;;;;3.03;2.20;;;;;;;9.67;62.76;100947.88;1625098;88;21040;-69
2022/09/09 01:03:53;;;;;;;2.15;1.77;;;;;;;9.69;62.76;100943.22;1625780;88;21117;-70
2022/09/09 01:06:33;;;;;;;3.40;2.03;;;;;;;9.71;62.69;100959.02;1625546;88;21103;-70
2022/09/09 01:09:28;;;;;;;2.90;2.10;;;;;;;9.72;62.60;100968.69;1625457;87;21137;-70
2022/09/09 01:12:15;;;;;;;2.90;1.80;;;;;;;9.38;62.53;100909.81;1625641;88;21115;-70
2022/09/09 01:15:00;;;;;;;5.13;2.30;;;;;;;9.70;62.70;100956.02;1625608;88;21172;-70
2022/09/09 01:17:44;;;;;;;3.30;2.43;;;;;;;9.65;62.86;100955.71;1624917;88;21075;-73
2022/09/09 01:20:41;;;;;;;3.27;2.33;;;;;;;9.61;63.01;100956.55;1623538;87;21029;-70
2022/09/09 01:23:48;;;;;;;4.73;2.90;;;;;;;9.58;63.21;100967.51;1625776;88;21131;-70
2022/09/09 01:26:34;;;;;;;5.53;2.33;;;;;;;9.53;63.45;100962.70;1623893;88;21012;-76
2022/09/09 01:29:06;;;;;;;2.53;2.03;;;;;;;9.48;63.50;100965.52;1624632;87;21081;-70
2022/09/09 01:31:42;;;;;;;4.87;2.57;;;;;;;9.46;63.74;100971.52;1625248;88;21124;-75
2022/09/09 01:34:15;;;;;;;2.50;2.30;;;;;;;9.44;63.95;100964.20;1585915;89;21137;-72
2022/09/09 01:36:53;;;;;;;3.57;2.50;;;;;;;9.42;64.00;100959.51;1590562;87;21042;-69
2022/09/09 01:39:21;;;;;;;3.37;2.47;;;;;;;9.40;64.23;100958.38;1674156;86;21453;-70
2022/09/09 01:41:50;;;;;;;3.60;2.47;;;;;;;9.37;64.31;100968.00;1673133;84;21509;-69
2022/09/09 01:44:19;;;;;;;3.23;1.80;;;;;;;9.33;64.58;100959.52;1659006;83;21010;-70
2022/09/09 01:46:47;;;;;;;3.33;2.40;;;;;;;9.30;64.57;100957.17;1688630;85;21083;-71
2022/09/09 01:49:17;;;;;;;3.50;2.87;;;;;;;9.29;64.73;100955.53;1688515;84;21057;-75
2022/09/09 01:51:46;;;;;;;5.00;2.43;;;;;;;9.26;64.80;100951.03;1688670;85;21153;-70
2022/09/09 01:54:14;;;;;;;3.53;2.20;;;;;;;9.22;65.05;100945.71;1687794;85;21065;-71
2022/09/09 01:56:51;;;;;;;3.05;2.75;;;;;;;9.19;65.25;100963.31;1688278;83;20998;-70
2022/09/09 01:59:42;;;;;;;3.67;3.10;;;;;;;9.15;65.37;100957.02;1688892;85;21043;-68
2022/09/09 02:02:24;;;;;;;3.17;2.43;;;;;;;9.11;65.61;100961.48;1688326;85;21034;-69
2022/09/09 02:05:18;;;;;;;3.37;2.87;;;;;;;9.06;65.72;100943.37;1689813;83;21006;-69
2022/09/09 02:07:51;;;;;;;4.17;3.07;;;;;;;9.02;65.85;100944.66;1688584;85;21058;-70
2022/09/09 02:10:52;;;;;;;3.47;2.40;;;;;;;8.99;65.99;100951.66;1689202;82;21018;-71
2022/09/09 02:13:22;;;;;;;5.20;3.03;;;;;;;8.98;66.04;100957.95;1689359;83;21568;-69
2022/09/09 02:16:08;;;;;;;5.33;3.40;;;;;;;8.95;66.16;100956.47;1688520;85;21058;-70
2022/09/09 02:19:12;;;;;;;6.33;3.27;;;;;;;8.95;66.26;100959.13;1688528;85;21042;-69
2022/09/09 02:21:59;;;;;;;6.47;2.97;;;;;;;8.91;66.30;100966.23;1688341;85;21041;-69
2022/09/09 02:26:32;;;;;;;3.87;2.90;;;;;;;8.91;66.55;100960.92;1707887;83;22210;-69
2022/09/09 02:29:05;;;;;;;3.97;3.20;;;;;;;8.85;66.61;100965.56;1684354;84;21018;-70
2022/09/09 02:31:35;;;;;;;4.37;2.23;;;;;;;8.84;66.64;100958.60;1653681;87;21104;-71
2022/09/09 02:34:08;;;;;;;3.60;2.43;;;;;;;8.81;66.62;100961.06;1605801;86;21029;-69
2022/09/09 02:36:40;;;;;;;4.23;3.47;;;;;;;8.81;66.75;100961.57;1652187;86;21018;-69
2022/09/09 02:39:09;;;;;;;3.33;2.57;;;;;;;8.80;66.92;100966.06;1625016;87;21041;-69
2022/09/09 02:41:39;;;;;;;3.50;3.17;;;;;;;8.77;66.86;100953.91;1619466;87;21512;-69
2022/09/09 02:44:14;;;;;;;3.37;2.70;;;;;;;8.77;66.87;100960.55;1643253;87;21042;-69
2022/09/09 02:47:02;;;;;;;4.13;2.90;;;;;;;8.77;66.93;100959.73;1655076;87;21085;-67
2022/09/09 02:50:14;;;;;;;3.80;3.30;;;;;;;8.75;67.01;100968.36;1655084;85;21076;-68
2022/09/09 02:53:04;;;;;;;6.27;3.53;;;;;;;8.70;67.20;100956.91;1654318;87;21045;-71
2022/09/09 02:55:44;;;;;;;5.67;3.60;;;;;;;8.65;67.38;100959.20;1652869;87;21064;-73
2022/09/09 03:02:21;;;;;;;4.40;3.47;;;;;;;8.56;67.68;100955.66;1645802;85;21030;-71
2022/09/09 03:04:52;;;;;;;4.43;3.33;;;;;;;8.48;68.10;100949.50;1657591;86;21022;-68
2022/09/09 03:07:19;;;;;;;4.27;3.60;;;;;;;8.45;68.13;100948.48;1658041;86;21113;-70
2022/09/09 03:09:46;;;;;;;4.73;3.13;;;;;;;8.43;68.29;100951.30;1657855;86;21027;-71
2022/09/09 03:12:12;;;;;;;6.08;3.67;;;;;;;8.44;68.39;100960.09;1657740;86;21249;-68
2022/09/09 03:14:39;;;;;;;3.97;3.27;;;;;;;8.44;68.43;100960.09;1658358;86;21070;-71
2022/09/09 03:17:09;;;;;;;4.03;3.57;;;;;;;8.46;68.48;100964.27;1657853;86;21587;-68
2022/09/09 03:19:37;;;;;;;3.90;3.50;;;;;;;8.49;68.44;100965.77;1657669;86;21638;-70
2022/09/09 03:22:04;;;;;;;5.37;3.57;;;;;;;8.50;68.40;100965.61;1643305;86;21557;-69
2022/09/09 03:24:31;;;;;;;4.97;3.60;;;;;;;8.53;68.37;100963.13;1649835;84;21059;-69
2022/09/09 03:26:57;;;;;;;5.10;4.05;;;;;;;8.58;68.25;100970.13;1690050;85;21617;-68
2022/09/09 03:29:24;;;;;;;;;;;;;;;8.59;68.21;100967.81;1692399;82;21079;-68
2022/09/09 03:31:51;;;;;;;5.47;3.55;;;;;;;8.62;68.09;100966.66;1668237;85;20139;-69
2022/09/09 03:34:18;;;;;;;5.30;3.27;;;;;;;8.60;68.17;100970.80;1690020;83;20980;-69
2022/09/09 03:36:44;;;;;;;3.50;2.83;;;;;;;8.64;68.14;100977.45;1680014;82;21005;-69
2022/09/09 03:39:11;;;;;;;6.40;3.97;;;;;;;8.69;68.00;100976.48;1655709;87;21560;-73
2022/09/09 03:41:38;;;;;;;5.20;3.43;;;;;;;8.74;67.90;100977.34;1651450;85;21349;-72
2022/09/09 03:44:05;;;;;;;;;;;;;;;8.80;67.77;100978.50;1628375;87;21468;-70
2022/09/09 03:46:33;;;;;;;5.20;2.70;;;;;;;8.87;67.63;100973.73;1648485;87;20140;-71
2022/09/09 03:49:00;;;;;;;;;;;;;;;8.95;67.53;100988.88;1631088;87;21065;-73
2022/09/09 03:51:26;;;;;;;3.17;2.63;;;;;;;9.18;67.32;100986.94;1612377;88;20124;-67
2022/09/09 03:53:55;;;;;;;5.87;3.77;;;;;;;9.53;66.43;100977.34;1668228;85;21032;-68
2022/09/09 03:56:21;;;;;;;3.33;2.80;;;;;;;9.93;65.17;100981.48;1691342;84;21051;-68
2022/09/09 03:58:47;;;;;;;3.53;2.70;;;;;;;10.17;63.79;100983.28;1648217;87;21058;-72
2022/09/09 04:01:16;;;;;;;3.40;3.10;;;;;;;10.47;63.16;100978.20;1689530;82;21080;-68
2022/09/09 04:03:44;;;;;;;3.20;2.87;;;;;;;10.90;61.87;100980.03;1648139;87;21061;-70
2022/09/09 04:06:13;;;;;;;3.60;2.90;;;;;;;11.44;60.31;100972.02;1651375;85;21524;-67
2022/09/09 04:08:41;;;;;;;3.02;2.40;;;;;;;11.98;58.39;100967.57;1628573;85;21142;-71
2022/09/09 04:11:09;;;;;;;3.47;2.95;;;;;;;12.38;56.21;100962.83;1648281;87;21085;-82
2022/09/09 04:13:38;;;;;;;3.37;2.70;;;;;;;12.50;54.96;100955.16;1646310;86;21037;-76
2022/09/09 04:16:10;;;;;;;2.83;2.62;;;;;;;12.37;54.60;100958.48;1648238;83;21125;-69
2022/09/09 04:18:36;;;;;;;3.47;2.27;;;;;;;12.41;54.48;100959.77;1648301;87;21178;-71
2022/09/09 04:21:04;;;;;;;;;;;;;;;12.88;53.91;100977.23;1650968;86;21045;-74
2022/09/09 04:23:30;;;;;;;3.12;2.83;;;;;;;13.22;52.10;100980.61;1644795;87;20458;-74
2022/09/09 04:25:59;;;;;;;5.67;2.85;;;;;;;13.17;52.14;100981.69;1668179;85;21132;-72
2022/09/09 04:28:29;;;;;;;3.27;2.10;;;;;;;13.01;52.08;100980.57;1675112;85;21500;-73
2022/09/09 04:30:57;;;;;;;5.17;2.80;;;;;;;12.77;52.53;100982.58;1675329;85;21077;-72
2022/09/09 04:33:28;;;;;;;3.50;2.52;;;;;;;12.42;53.14;100989.52;1675000;86;21097;-73
2022/09/09 04:35:54;;;;;;;5.55;3.35;;;;;;;12.01;54.10;100997.95;1676629;85;21049;-73
2022/09/09 04:38:22;;;;;;;3.20;2.45;;;;;;;11.66;55.20;101003.73;1675455;85;21516;-73
2022/09/09 04:40:53;;;;;;;4.78;3.47;;;;;;;11.53;56.07;101014.17;1675072;84;21941;-73
2022/09/09 04:43:22;;;;;;;3.90;2.87;;;;;;;11.80;56.10;101011.97;1675583;85;21060;-74
2022/09/09 04:45:50;;;;;;;3.65;2.98;;;;;;;12.39;55.42;101008.58;1667893;86;21172;-71
2022/09/09 04:48:16;;;;;;;4.67;2.80;;;;;;;12.82;53.72;101010.91;1667798;85;21065;-74
2022/09/09 04:50:43;;;;;;;3.45;2.80;;;;;;;13.11;53.10;101017.73;1667510;86;21053;-71
2022/09/09 04:53:11;;;;;;;3.87;2.95;;;;;;;13.63;52.16;101018.83;1667816;85;21054;-73
2022/09/09 04:55:38;;;;;;;3.10;2.20;;;;;;;14.46;50.18;101009.36;1667856;85;21050;-74
2022/09/09 04:58:07;;;;;;;6.50;2.60;;;;;;;15.33;48.17;101003.84;1668053;85;21040;-75
2022/09/09 05:00:37;;;;;;;3.30;3.00;;;;;;;15.96;45.39;101003.52;1668037;85;21582;-75
2022/09/09 05:03:08;;;;;;;4.17;2.50;;;;;;;16.44;44.17;101003.23;1668513;85;21105;-73
2022/09/09 05:05:35;;;;;;;4.40;3.15;;;;;;;16.89;43.10;101008.70;1667971;85;21069;-76
2022/09/09 05:08:05;;;;;;;3.95;2.02;;;;;;;17.39;41.53;101019.34;1668121;86;21045;-76
2022/09/09 05:10:32;;;;;;;1.98;1.65;;;;;;;17.84;40.99;101014.70;1668031;85;21057;-73
2022/09/09 05:12:59;;;;;;;2.00;1.85;;;;;;;18.69;39.13;101011.89;1644627;86;21037;-74
2022/09/09 05:15:28;;;;;;;3.85;2.65;;;;;;;18.69;39.13;101011.89;1668143;85;21057;-73
2022/09/09 05:17:59;;;;;;;;;;;;;;;18.90;38.41;101002.52;1670539;83;21038;-76
2022/09/09 05:20:25;;;;;;;3.47;2.42;;;;;;;19.05;37.47;100987.27;1649510;86;20096;-75
2022/09/09 05:22:56;;;;;;;;;;;;;;;19.07;37.66;100997.31;1643262;87;21051;-78
2022/09/09 05:25:25;;;;;;;2.37;1.87;;;;;;;19.26;37.23;101004.31;1638565;86;20281;-76
2022/09/09 05:27:53;;;;;;;3.27;1.85;;;;;;;19.32;36.69;100989.59;1648248;87;20970;-73
2022/09/09 05:30:24;;;;;;;1.80;1.70;;;;;;;19.39;36.58;100978.97;1664365;86;21050;-69
2022/09/09 05:32:50;;;;;;;3.15;2.10;;;;;;;19.46;36.90;100966.72;1665475;86;21094;-71
2022/09/09 05:35:18;;;;;;;2.33;1.50;;;;;;;19.63;36.44;100974.97;1665656;86;21055;-69
2022/09/09 05:37:45;;;;;;;3.00;2.15;;;;;;;19.91;35.78;100978.38;1653794;85;21024;-70
2022/09/09 05:40:12;;;;;;;3.30;1.25;;;;;;;20.08;35.48;100980.36;1649336;87;21036;-72
2022/09/09 05:42:41;;;;;;;5.75;1.95;;;;;;;19.76;35.64;100971.23;1621547;88;21201;-77
2022/09/09 05:45:09;;;;;;;6.35;2.72;;;;;;;19.22;36.11;100977.45;1616060;88;21030;-72
2022/09/09 05:47:37;;;;;;;5.37;3.30;;;;;;;18.84;37.05;100976.42;1620373;88;21522;-76
2022/09/09 05:50:05;;;;;;;4.28;2.37;;;;;;;18.81;37.40;100978.22;1632141;87;21057;-74
2022/09/09 05:52:32;;;;;;;1.80;1.67;;;;;;;18.82;37.44;100983.94;1610357;88;21030;-73
2022/09/09 05:54:59;;;;;;;3.17;2.50;;;;;;;18.95;37.07;100991.02;1632399;88;21673;-73
2022/09/09 05:57:25;;;;;;;2.33;1.90;;;;;;;19.02;37.18;100980.45;1651759;86;21512;-72
2022/09/09 05:59:52;;;;;;;2.02;1.35;;;;;;;19.08;37.59;100981.92;1649566;87;21202;-77
2022/09/09 06:02:18;;;;;;;;;;;;;;;19.49;36.58;100981.09;1668387;85;21505;-71
2022/09/09 06:04:44;;;;;;;3.72;1.40;;;;;;;19.87;35.81;100985.30;1626369;86;20132;-77
2022/09/09 06:07:11;;;;;;;3.25;1.40;;;;;;;20.02;35.67;100981.62;1677262;85;21068;-75
2022/09/09 06:09:38;;;;;;;1.90;1.67;;;;;;;19.81;35.68;100983.53;1676762;84;21477;-71
2022/09/09 06:12:07;;;;;;;1.20;0.90;;;;;;;19.57;35.80;100997.52;1636153;86;21070;-71
2022/09/09 06:14:36;;;;;;;3.12;2.27;;;;;;;19.10;36.23;100998.22;1632843;88;21107;-72
2022/09/09 06:17:03;;;;;;;3.35;1.32;;;;;;;18.66;37.21;101006.93;1605617;89;21054;-72
2022/09/09 06:19:30;;;;;;;3.00;1.60;;;;;;;18.63;37.84;101006.05;1629610;88;21071;-78
2022/09/09 06:21:58;;;;;;;1.87;1.55;;;;;;;18.71;37.63;101001.69;1666613;85;21595;-70
2022/09/09 06:24:26;;;;;;;2.15;1.45;;;;;;;18.65;37.88;100994.50;1704135;84;21012;-70
2022/09/09 06:26:53;;;;;;;4.15;1.65;;;;;;;18.51;37.78;101001.09;1679043;85;21091;-71
2022/09/09 06:29:22;;;;;;;4.53;1.52;;;;;;;18.40;38.05;101012.09;1679609;82;21039;-74
2022/09/09 06:31:48;;;;;;;6.15;2.05;;;;;;;18.45;38.09;101007.67;1679440;85;21611;-77
2022/09/09 06:34:17;;;;;;;3.00;1.27;;;;;;;18.65;38.15;100997.20;1679744;84;21535;-71
2022/09/09 06:36:46;;;;;;;1.77;1.67;;;;;;;18.83;37.87;101005.29;1679613;82;21028;-74
2022/09/09 06:39:12;;;;;;;;;;;;;;;19.02;37.37;101006.62;1682364;85;21091;-71
2022/09/09 06:41:39;;;;;;;1.45;1.35;;;;;;;19.21;36.88;101002.84;1679601;84;20108;-73
2022/09/09 06:44:07;;;;;;;3.85;1.62;;;;;;;19.19;36.69;101006.81;1679428;82;21057;-75
2022/09/09 06:46:35;;;;;;;3.20;2.02;;;;;;;19.10;36.57;101009.02;1680467;84;21209;-72
2022/09/09 06:49:02;;;;;;;1.57;1.37;;;;;;;19.08;36.31;101000.33;1679654;84;21016;-78
2022/09/09 06:51:35;;;;;;;4.22;0.88;;;;;;;18.88;37.11;100999.22;1679558;85;21536;-71
2022/09/09 06:54:04;;;;;;;1.42;1.25;;;;;;;18.63;37.41;100999.30;1679458;84;21055;-72
2022/09/09 06:56:42;;;;;;;3.08;1.42;;;;;;;18.28;37.96;100994.47;1679652;82;21060;-72
2022/09/09 06:59:12;;;;;;;1.85;1.50;;;;;;;18.05;38.73;101008.08;1679949;83;21528;-70
2022/09/09 07:01:41;;;;;;;4.20;1.45;;;;;;;17.72;39.18;101012.36;1679503;84;21081;-70
2022/09/09 07:04:12;;;;;;;4.15;1.80;;;;;;;17.38;39.71;101015.80;1679700;82;21075;-72
2022/09/09 07:06:43;;;;;;;1.52;0.90;;;;;;;17.07;40.55;101014.75;1679592;85;21044;-71
2022/09/09 07:09:15;;;;;;;2.17;1.75;;;;;;;16.80;41.12;101018.55;1679525;84;21004;-70
2022/09/09 07:11:49;;;;;;;3.45;1.57;;;;;;;16.53;41.57;101019.45;1679758;85;21636;-75
2022/09/09 07:14:16;;;;;;;1.55;1.42;;;;;;;16.33;42.08;101030.78;1679493;82;20969;-72
2022/09/09 07:16:46;;;;;;;0.72;0.68;;;;;;;16.03;42.96;101026.36;1679865;83;21048;-71
2022/09/09 07:19:14;;;;;;;3.77;1.15;;;;;;;16.03;42.96;101026.36;1680353;85;21078;-71
2022/09/09 07:21:42;;;;;;;1.82;1.10;;;;;;;15.94;42.89;101031.96;1679796;82;21071;-72
2022/09/09 07:24:10;;;;;;;1.60;0.90;;;;;;;15.86;43.23;101028.14;1679556;84;21080;-72
2022/09/09 07:26:39;;;;;;;6.42;1.45;;;;;;;15.80;43.50;101026.25;1679732;85;21099;-72
2022/09/09 07:29:07;;;;;;;1.10;1.00;;;;;;;15.79;43.65;101037.23;1679560;82;21043;-70
2022/09/09 07:31:37;;;;;;;3.25;1.07;;;;;;;15.75;43.55;101040.33;1679405;85;21550;-73
2022/09/09 07:34:05;;;;;;;1.20;0.95;;;;;;;15.69;43.49;101034.90;1705174;83;20989;-75
2022/09/09 07:36:39;;;;;;;4.03;0.95;;;;;;;15.60;43.74;101036.97;1679329;84;21122;-70
2022/09/09 07:39:12;;;;;;;2.70;0.68;;;;;;;15.48;44.05;101030.53;1679486;85;21068;-71
2022/09/09 07:41:45;;;;;;;1.12;1.02;;;;;;;15.41;44.24;101033.22;1705022;82;21582;-72
2022/09/09 07:44:16;;;;;;;2.15;1.07;;;;;;;15.35;44.40;101018.74;1679132;84;21080;-72
2022/09/09 07:46:45;;;;;;;3.08;0.60;;;;;;;15.29;44.69;101019.53;1679179;85;21070;-71
2022/09/09 07:49:12;;;;;;;1.62;1.05;;;;;;;15.27;44.71;101028.83;1704745;84;21039;-70
2022/09/09 07:51:43;;;;;;;1.22;0.53;;;;;;;15.24;44.49;101042.66;1679850;85;21004;-72
2022/09/09 07:54:13;;;;;;;0.62;0.50;;;;;;;15.16;44.19;101027.55;1679864;82;21547;-73
2022/09/09 07:56:42;;;;;;;2.65;0.70;;;;;;;15.10;43.99;101018.45;1679504;84;21085;-70
2022/09/09 07:59:10;;;;;;;0.65;0.30;;;;;;;15.03;44.33;101020.80;1679436;85;21627;-71
2022/09/09 08:01:42;;;;;;;0.78;0.50;;;;;;;14.94;44.07;101012.11;1679572;82;21001;-71
2022/09/09 08:04:15;;;;;;;1.65;0.45;;;;;;;14.91;43.90;101022.72;1679333;84;21124;-72
2022/09/09 08:06:49;;;;;;;0.37;0.20;;;;;;;14.92;43.92;101023.05;1679817;85;21091;-71
2022/09/09 08:09:17;;;;;;;1.32;0.20;;;;;;;14.97;43.47;101039.88;1680079;82;21060;-72
2022/09/09 08:11:44;;;;;;;1.27;0.50;;;;;;;15.05;42.99;101022.77;1679970;85;21040;-72
2022/09/09 08:14:11;;;;;;;0.53;0.37;;;;;;;15.12;43.26;101014.22;1679562;84;21011;-72
2022/09/09 08:16:44;;;;;;;0.75;0.50;;;;;;;15.25;42.81;101012.09;1658149;83;21083;-73
2022/09/09 08:19:12;;;;;;;1.75;0.37;;;;;;;15.39;42.55;101016.48;1705076;84;21091;-73
2022/09/09 08:21:40;;;;;;;0.53;0.10;;;;;;;15.50;41.96;100998.91;1679525;84;21072;-73
2022/09/09 08:24:10;;;;;;;0.40;0.20;;;;;;;15.63;41.33;101031.70;1679500;82;21139;-71
2022/09/09 08:26:41;;;;;;;1.15;0.10;;;;;;;15.72;41.21;101004.41;1679606;85;21056;-71
2022/09/09 08:29:11;;;;;;;0.93;0.15;;;;;;;15.80;41.15;100996.69;1679798;84;21071;-72
2022/09/09 08:31:42;;;;;;;2.08;0.20;;;;;;;15.89;40.94;100991.42;1679883;85;21036;-70
2022/09/09 08:34:09;;;;;;;0.80;0.10;;;;;;;15.95;40.41;101013.47;1680021;82;21224;-72
2022/09/09 08:36:42;;;;;;;0.40;0.10;;;;;;;15.95;39.66;101004.55;1679527;84;21135;-71
2022/09/09 08:39:11;;;;;;;0.85;0.10;;;;;;;15.89;39.64;100998.66;1680167;83;21056;-71
2022/09/09 08:42:06;;;;;;;2.65;0.20;;;;;;;15.87;39.44;101002.08;1679578;82;21166;-70
2022/09/09 08:44:46;;;;;;;3.30;0.20;;;;;;;15.88;39.54;100993.81;1679589;84;21116;-72
2022/09/09 08:47:46;;;;;;;0.60;0.30;;;;;;;15.93;39.05;100990.48;1679847;85;21127;-72
2022/09/09 08:50:28;;;;;;;1.75;0.10;;;;;;;15.96;38.65;101003.52;1679559;84;21013;-72
2022/09/09 08:53:16;;;;;;;0.95;0.17;;;;;;;16.00;38.46;100993.19;1679843;82;21075;-71
2022/09/09 08:55:49;;;;;;;0.20;0.10;;;;;;;16.04;38.49;100989.04;1705393;83;21083;-72
2022/09/09 08:58:21;;;;;;;0.60;0.20;;;;;;;16.07;38.54;100997.52;1679669;83;21623;-73
2022/09/09 09:01:22;;;;;;;0.15;0.10;;;;;;;16.08;38.70;100969.58;1679279;82;21193;-75
2022/09/09 09:04:23;;;;;;;2.12;0.20;;;;;;;16.14;38.58;100992.97;1679301;85;21615;-74
2022/09/09 09:07:08;;;;;;;0.78;0.10;;;;;;;16.19;38.84;100974.02;1679268;85;21123;-71
2022/09/09 09:10:04;;;;;;;0.40;0.10;;;;;;;16.28;38.85;100986.22;1679068;84;21117;-73
2022/09/09 09:12:38;;;;;;;0.62;0.30;;;;;;;16.40;38.81;100970.25;1704726;82;21100;-72
2022/09/09 09:15:18;;;;;;;0.20;0.10;;;;;;;16.58;38.07;100968.23;1679366;85;21075;-75
2022/09/09 09:17:45;;;;;;;1.32;0.20;;;;;;;16.69;37.80;100979.69;1659539;85;21143;-71
2022/09/09 09:20:18;;;;;;;0.50;0.23;;;;;;;16.77;37.69;100970.54;1679443;82;21091;-71
2022/09/09 09:22:54;;;;;;;0.30;0.30;;;;;;;16.83;37.69;100966.48;1679844;85;21091;-72
2022/09/09 09:25:28;;;;;;;0.60;0.40;;;;;;;16.90;37.58;100944.92;1679721;84;21527;-73
2022/09/09 09:28:12;;;;;;;1.72;0.30;;;;;;;16.97;37.56;100947.07;1679790;83;21103;-71
2022/09/09 09:30:52;;;;;;;3.47;1.05;;;;;;;17.07;37.51;100958.72;1679527;85;21377;-70
2022/09/09 09:33:50;;;;;;;5.75;0.20;;;;;;;17.10;37.35;100965.00;1679659;84;20996;-74
2022/09/09 09:36:19;;;;;;;1.12;0.10;;;;;;;17.11;36.24;100979.59;1679530;82;21060;-73
2022/09/09 09:39:00;;;;;;;0.15;0.10;;;;;;;17.05;35.99;100978.30;1679766;85;21052;-73
2022/09/09 09:41:38;;;;;;;1.32;0.10;;;;;;;16.98;36.53;100958.66;1679581;84;21148;-71
2022/09/09 09:44:08;;;;;;;0.33;0.20;;;;;;;16.98;36.57;100990.98;1679772;82;21022;-72
2022/09/09 09:46:35;;;;;;;1.17;0.20;;;;;;;17.04;36.16;100964.52;1680047;85;21620;-72
2022/09/09 09:49:10;;;;;;;2.87;0.10;;;;;;;17.04;36.16;100964.52;1680166;83;21586;-71
2022/09/09 09:51:37;;;;;;;0.42;0.10;;;;;;;17.13;36.15;100973.47;1679680;85;21080;-73
2022/09/09 09:54:16;;;;;;;;;;;;;;;17.22;35.52;100953.84;1682057;84;21167;-70
2022/09/09 09:56:45;;;;;;;0.28;0.10;;;;;;;17.23;34.74;100959.52;1680107;84;20128;-73
2022/09/09 09:59:34;;;;;;;3.98;0.25;;;;;;;17.23;34.74;100959.52;1679750;85;21024;-72
2022/09/09 10:02:24;;;;;;;0.98;0.10;;;;;;;17.26;35.03;100962.33;1679672;82;21008;-71
2022/09/09 10:05:05;;;;;;;0.30;0.20;;;;;;;17.28;34.86;100958.36;1679025;84;21064;-72
2022/09/09 10:07:33;;;;;;;0.60;0.10;;;;;;;17.30;35.23;100954.92;1679694;85;21123;-75
2022/09/09 10:10:01;;;;;;;0.30;0.10;;;;;;;17.41;34.24;100978.19;1679109;82;21107;-77
2022/09/09 10:12:46;;;;;;;2.50;0.10;;;;;;;17.43;33.67;100970.70;1679611;84;20965;-71
2022/09/09 10:15:39;;;;;;;0.20;0.10;;;;;;;17.43;33.38;100971.53;1679396;85;21071;-74
2022/09/09 10:18:25;;;;;;;2.72;0.10;;;;;;;17.45;33.70;100959.19;1651460;85;21061;-72
2022/09/09 10:21:15;;;;;;;0.30;0.20;;;;;;;17.57;33.98;100978.98;1700138;84;21496;-71
2022/09/09 10:24:13;;;;;;;1.75;0.10;;;;;;;17.69;33.79;100972.37;1679286;85;21079;-72
2022/09/09 10:27:26;;;;;;;0.72;0.40;;;;;;;17.69;33.64;100976.42;1678959;85;21162;-74
2022/09/09 10:30:32;;;;;;;0.65;0.10;;;;;;;17.71;33.42;100960.32;1678806;84;21115;-71
2022/09/09 10:33:26;;;;;;;0.88;0.30;;;;;;;17.71;33.42;100960.32;1678715;82;21087;-74
2022/09/09 10:36:05;;;;;;;3.25;0.10;;;;;;;17.74;33.32;100948.79;1679066;85;21185;-73
2022/09/09 10:38:48;;;;;;;0.13;0.10;;;;;;;17.82;33.58;100941.75;1676996;85;21115;-71
2022/09/09 10:41:59;;;;;;;0.23;0.10;;;;;;;17.94;33.33;100956.20;1678791;84;21083;-71
2022/09/09 10:44:51;;;;;;;0.82;0.10;;;;;;;18.02;33.10;100951.87;1671832;82;21036;-71
2022/09/09 10:47:32;;;;;;;2.33;0.20;;;;;;;18.01;33.28;100967.77;1679404;85;21016;-72
2022/09/09 10:50:35;;;;;;;5.05;0.10;;;;;;;18.03;32.23;100943.27;1678312;84;21077;-71
2022/09/09 10:53:23;;;;;;;0.72;0.10;;;;;;;18.10;32.23;100960.19;1643904;85;21136;-72
2022/09/09 10:55:59;;;;;;;0.62;0.10;;;;;;;18.15;31.89;100944.16;1679363;85;21075;-72
2022/09/09 10:58:38;;;;;;;2.12;0.20;;;;;;;18.11;32.35;100961.03;1679334;84;21161;-72
2022/09/09 11:01:21;;;;;;;0.45;0.20;;;;;;;17.97;32.85;100933.35;1678952;82;21289;-74
2022/09/09 11:04:21;;;;;;;1.45;0.10;;;;;;;17.91;33.10;100947.20;1679713;85;21136;-73
2022/09/09 11:06:52;;;;;;;0.10;0.10;;;;;;;17.95;32.43;100951.63;1679694;85;21568;-72
2022/09/09 11:09:24;;;;;;;0.20;0.20;;;;;;;17.95;32.14;100951.13;1679136;83;21556;-72
2022/09/09 11:11:57;;;;;;;0.20;0.10;;;;;;;17.87;31.91;100954.09;1679030;85;21048;-71
2022/09/09 11:14:35;;;;;;;1.35;0.10;;;;;;;17.85;32.20;100937.31;1679742;82;21028;-70
2022/09/09 11:17:16;;;;;;;0.28;0.10;;;;;;;17.87;32.30;100943.30;1679033;84;21016;-72
2022/09/09 11:19:44;;;;;;;0.50;0.10;;;;;;;17.89;32.99;100930.42;1679592;85;21019;-73
2022/09/09 11:22:21;;;;;;;1.17;0.20;;;;;;;17.94;33.25;100956.73;1704320;82;21604;-71
2022/09/09 11:25:05;;;;;;;0.45;0.40;;;;;;;18.00;33.49;100941.83;1678778;84;21067;-74
2022/09/09 11:31:50;;;;;;;1.37;0.10;;;;;;;17.99;33.63;100934.80;1678700;85;21080;-74
2022/09/09 11:34:57;;;;;;;0.65;0.17;;;;;;;17.96;33.22;100934.41;1678343;84;21043;-73
2022/09/09 11:37:55;;;;;;;3.37;0.28;;;;;;;17.94;33.52;100952.16;1679089;82;21040;-72
2022/09/09 11:40:25;;;;;;;;;;;;;;;17.93;33.27;100940.24;1681309;84;21103;-72
2022/09/09 11:43:14;;;;;;;0.65;0.10;;;;;;;17.92;33.34;100950.21;1679179;85;20147;-71
2022/09/09 11:45:43;;;;;;;3.33;0.20;;;;;;;17.90;33.27;100946.91;1679338;84;21056;-72
2022/09/09 11:48:45;;;;;;;1.22;0.15;;;;;;;17.94;33.10;100956.73;1679295;82;21095;-70
2022/09/09 11:51:23;;;;;;;0.75;0.10;;;;;;;17.94;33.04;100940.56;1656241;85;21028;-73
2022/09/09 11:54:02;;;;;;;0.85;0.20;;;;;;;17.98;32.74;100947.16;1681571;83;21178;-72
2022/09/09 11:56:33;;;;;;;0.62;0.10;;;;;;;18.01;32.75;100956.97;1679095;84;21083;-71
2022/09/09 11:59:06;;;;;;;1.92;0.10;;;;;;;18.05;32.44;100933.90;1679523;85;20992;-69
2022/09/09 12:01:41;;;;;;;0.65;0.08;;;;;;;18.07;32.17;100918.31;1679434;84;21082;-70
2022/09/09 12:04:30;;;;;;;0.80;0.10;;;;;;;18.07;32.29;100921.01;1679343;82;21024;-72
2022/09/09 12:07:04;;;;;;;0.45;0.10;;;;;;;18.08;31.99;100929.92;1679423;85;21036;-72
2022/09/09 12:10:03;;;;;;;0.47;0.10;;;;;;;18.09;32.06;100911.34;1678615;84;21032;-69
2022/09/09 12:12:35;;;;;;;0.50;0.10;;;;;;;18.11;32.01;100931.36;1679014;82;21028;-70
2022/09/09 12:15:14;;;;;;;2.52;0.10;;;;;;;18.15;31.93;100921.77;1679605;85;21096;-73
2022/09/09 12:17:53;;;;;;;1.20;0.10;;;;;;;18.12;31.63;100914.11;1679186;84;21132;-72